sensor_id;sensor_type;location;lat;lon;timestamp;P1;durP1;ratioP1;P2;durP2;ratioP2
52494;SDS011;38405;53.212;5.660;2023-03-25T00:01:02;31.23;;;5.13;;
52494;SDS011;38405;53.212;5.660;2023-03-25T00:03:33;22.98;;;4.13;;
52494;SDS011;38405;53.212;5.660;2023-03-25T00:06:03;33.28;;;4.43;;
52494;SDS011;38405;53.212;5.660;2023-03-25T00:08:31;33.55;;;4.97;;
52494;SDS011;38405;53.212;5.660;2023-03-25T00:10:57;27.92;;;5.13;;
52494;SDS011;38405;53.212;5.660;2023-03-25T00:13:24;29.40;;;5.00;;
52494;SDS011;38405;53.212;5.660;2023-03-25T00:15:51;28.42;;;4.25;;
52494;SDS011;38405;53.212;5.660;2023-03-25T00:18:22;29.10;;;4.63;;
52494;SDS011;38405;53.212;5.660;2023-03-25T00:20:53;39.08;;;5.60;;
52494;SDS011;38405;53.212;5.660;2023-03-25T00:23:20;23.63;;;3.53;;
52494;SDS011;38405;53.212;5.660;2023-03-25T00:25:46;24.73;;;4.10;;
52494;SDS011;38405;53.212;5.660;2023-03-25T00:28:13;22.83;;;3.95;;
52494;SDS011;38405;53.212;5.660;2023-03-25T00:30:40;31.45;;;5.05;;
52494;SDS011;38405;53.212;5.660;2023-03-25T00:33:07;24.40;;;4.03;;
52494;SDS011;38405;53.212;5.660;2023-03-25T00:35:37;26.00;;;4.28;;
52494;SDS011;38405;53.212;5.660;2023-03-25T00:38:08;27.58;;;4.97;;
52494;SDS011;38405;53.212;5.660;2023-03-25T00:40:34;31.33;;;4.05;;
52494;SDS011;38405;53.212;5.660;2023-03-25T00:43:03;25.50;;;4.20;;
52494;SDS011;38405;53.212;5.660;2023-03-25T00:45:30;30.08;;;4.18;;
52494;SDS011;38405;53.212;5.660;2023-03-25T00:47:57;26.80;;;4.72;;
52494;SDS011;38405;53.212;5.660;2023-03-25T00:50:23;25.92;;;4.93;;
52494;SDS011;38405;53.212;5.660;2023-03-25T00:52:50;25.65;;;4.15;;
52494;SDS011;38405;53.212;5.660;2023-03-25T00:55:17;30.58;;;4.78;;
52494;SDS011;38405;53.212;5.660;2023-03-25T00:57:43;23.10;;;4.53;;
52494;SDS011;38405;53.212;5.660;2023-03-25T01:00:10;24.40;;;4.22;;
52494;SDS011;38405;53.212;5.660;2023-03-25T01:02:39;27.63;;;4.40;;
52494;SDS011;38405;53.212;5.660;2023-03-25T01:05:06;34.75;;;6.28;;
52494;SDS011;38405;53.212;5.660;2023-03-25T01:07:34;37.25;;;4.57;;
52494;SDS011;38405;53.212;5.660;2023-03-25T01:10:01;31.08;;;5.85;;
52494;SDS011;38405;53.212;5.660;2023-03-25T01:12:28;34.10;;;5.45;;
52494;SDS011;38405;53.212;5.660;2023-03-25T01:14:54;33.45;;;5.38;;
52494;SDS011;38405;53.212;5.660;2023-03-25T01:17:19;34.95;;;4.63;;
52494;SDS011;38405;53.212;5.660;2023-03-25T01:19:45;27.88;;;4.43;;
52494;SDS011;38405;53.212;5.660;2023-03-25T01:22:10;31.98;;;4.88;;
52494;SDS011;38405;53.212;5.660;2023-03-25T01:24:36;32.53;;;4.75;;
52494;SDS011;38405;53.212;5.660;2023-03-25T01:27:02;32.88;;;4.75;;
52494;SDS011;38405;53.212;5.660;2023-03-25T01:29:28;27.30;;;4.70;;
52494;SDS011;38405;53.212;5.660;2023-03-25T01:31:55;29.85;;;4.65;;
52494;SDS011;38405;53.212;5.660;2023-03-25T01:34:21;32.97;;;5.40;;
52494;SDS011;38405;53.212;5.660;2023-03-25T01:36:47;26.83;;;4.65;;
52494;SDS011;38405;53.212;5.660;2023-03-25T01:39:13;40.42;;;5.57;;
52494;SDS011;38405;53.212;5.660;2023-03-25T01:41:43;36.92;;;5.18;;
52494;SDS011;38405;53.212;5.660;2023-03-25T01:46:46;33.05;;;5.75;;
52494;SDS011;38405;53.212;5.660;2023-03-25T01:49:17;37.40;;;5.07;;
52494;SDS011;38405;53.212;5.660;2023-03-25T01:52:06;32.95;;;5.47;;
52494;SDS011;38405;53.212;5.660;2023-03-25T01:54:36;35.25;;;5.20;;
52494;SDS011;38405;53.212;5.660;2023-03-25T01:57:05;33.80;;;5.43;;
52494;SDS011;38405;53.212;5.660;2023-03-25T01:59:32;35.50;;;4.68;;
52494;SDS011;38405;53.212;5.660;2023-03-25T02:01:59;24.38;;;4.85;;
52494;SDS011;38405;53.212;5.660;2023-03-25T02:04:36;37.75;;;6.68;;
52494;SDS011;38405;53.212;5.660;2023-03-25T02:07:15;32.08;;;5.30;;
52494;SDS011;38405;53.212;5.660;2023-03-25T02:09:42;37.50;;;5.40;;
52494;SDS011;38405;53.212;5.660;2023-03-25T02:12:08;35.28;;;5.70;;
52494;SDS011;38405;53.212;5.660;2023-03-25T02:14:34;37.22;;;5.07;;
52494;SDS011;38405;53.212;5.660;2023-03-25T02:25:29;30.10;;;5.63;;
52494;SDS011;38405;53.212;5.660;2023-03-25T02:36:34;38.88;;;5.20;;
52494;SDS011;38405;53.212;5.660;2023-03-25T02:46:35;33.35;;;5.38;;
52494;SDS011;38405;53.212;5.660;2023-03-25T02:49:10;34.28;;;5.00;;
52494;SDS011;38405;53.212;5.660;2023-03-25T02:51:40;39.88;;;5.93;;
52494;SDS011;38405;53.212;5.660;2023-03-25T02:54:13;26.27;;;5.13;;
52494;SDS011;38405;53.212;5.660;2023-03-25T02:56:41;30.55;;;4.78;;
52494;SDS011;38405;53.212;5.660;2023-03-25T02:59:10;30.88;;;4.80;;
52494;SDS011;38405;53.212;5.660;2023-03-25T03:01:38;36.83;;;5.35;;
52494;SDS011;38405;53.212;5.660;2023-03-25T03:04:05;35.75;;;4.72;;
52494;SDS011;38405;53.212;5.660;2023-03-25T03:06:31;34.60;;;5.75;;
52494;SDS011;38405;53.212;5.660;2023-03-25T03:09:23;41.22;;;6.88;;
52494;SDS011;38405;53.212;5.660;2023-03-25T03:12:14;28.83;;;4.38;;
52494;SDS011;38405;53.212;5.660;2023-03-25T03:17:42;29.67;;;5.28;;
52494;SDS011;38405;53.212;5.660;2023-03-25T03:20:33;24.85;;;4.80;;
52494;SDS011;38405;53.212;5.660;2023-03-25T03:23:31;28.65;;;4.82;;
52494;SDS011;38405;53.212;5.660;2023-03-25T03:29:08;27.75;;;5.90;;
52494;SDS011;38405;53.212;5.660;2023-03-25T03:31:49;27.05;;;4.57;;
52494;SDS011;38405;53.212;5.660;2023-03-25T03:37:08;28.95;;;4.53;;
52494;SDS011;38405;53.212;5.660;2023-03-25T03:39:38;35.00;;;5.25;;
52494;SDS011;38405;53.212;5.660;2023-03-25T03:42:14;25.63;;;4.00;;
52494;SDS011;38405;53.212;5.660;2023-03-25T03:44:45;29.80;;;4.97;;
52494;SDS011;38405;53.212;5.660;2023-03-25T03:47:17;25.30;;;5.22;;
52494;SDS011;38405;53.212;5.660;2023-03-25T03:49:50;27.45;;;4.93;;
52494;SDS011;38405;53.212;5.660;2023-03-25T03:52:26;31.67;;;4.85;;
52494;SDS011;38405;53.212;5.660;2023-03-25T03:54:59;38.45;;;6.55;;
52494;SDS011;38405;53.212;5.660;2023-03-25T03:57:31;40.60;;;5.97;;
52494;SDS011;38405;53.212;5.660;2023-03-25T04:02:40;33.92;;;5.40;;
52494;SDS011;38405;53.212;5.660;2023-03-25T04:05:13;35.63;;;5.75;;
52494;SDS011;38405;53.212;5.660;2023-03-25T04:10:52;32.85;;;5.55;;
52494;SDS011;38405;53.212;5.660;2023-03-25T04:13:16;35.03;;;5.47;;
52494;SDS011;38405;53.212;5.660;2023-03-25T04:15:44;41.83;;;5.22;;
52494;SDS011;38405;53.212;5.660;2023-03-25T04:18:11;25.88;;;4.63;;
52494;SDS011;38405;53.212;5.660;2023-03-25T04:20:39;31.33;;;5.35;;
52494;SDS011;38405;53.212;5.660;2023-03-25T04:23:13;33.40;;;4.78;;
52494;SDS011;38405;53.212;5.660;2023-03-25T04:25:43;26.88;;;4.90;;
52494;SDS011;38405;53.212;5.660;2023-03-25T04:28:13;31.23;;;4.90;;
52494;SDS011;38405;53.212;5.660;2023-03-25T04:30:41;31.35;;;5.40;;
52494;SDS011;38405;53.212;5.660;2023-03-25T04:33:09;29.23;;;5.05;;
52494;SDS011;38405;53.212;5.660;2023-03-25T04:35:36;37.00;;;5.45;;
52494;SDS011;38405;53.212;5.660;2023-03-25T04:38:03;24.88;;;5.35;;
52494;SDS011;38405;53.212;5.660;2023-03-25T04:40:29;25.95;;;5.05;;
52494;SDS011;38405;53.212;5.660;2023-03-25T04:42:55;30.13;;;4.75;;
52494;SDS011;38405;53.212;5.660;2023-03-25T04:45:22;22.75;;;4.75;;
52494;SDS011;38405;53.212;5.660;2023-03-25T04:47:49;36.58;;;5.65;;
52494;SDS011;38405;53.212;5.660;2023-03-25T04:50:25;29.45;;;4.38;;
52494;SDS011;38405;53.212;5.660;2023-03-25T04:52:52;27.48;;;4.18;;
52494;SDS011;38405;53.212;5.660;2023-03-25T04:55:19;30.05;;;4.55;;
52494;SDS011;38405;53.212;5.660;2023-03-25T04:57:45;35.33;;;5.28;;
52494;SDS011;38405;53.212;5.660;2023-03-25T05:00:12;23.55;;;4.78;;
52494;SDS011;38405;53.212;5.660;2023-03-25T05:02:43;24.90;;;4.85;;
52494;SDS011;38405;53.212;5.660;2023-03-25T05:05:17;26.48;;;4.10;;
52494;SDS011;38405;53.212;5.660;2023-03-25T05:07:46;34.63;;;5.20;;
52494;SDS011;38405;53.212;5.660;2023-03-25T05:10:14;29.55;;;4.95;;
52494;SDS011;38405;53.212;5.660;2023-03-25T05:12:41;31.38;;;4.68;;
52494;SDS011;38405;53.212;5.660;2023-03-25T05:15:07;28.50;;;5.43;;
52494;SDS011;38405;53.212;5.660;2023-03-25T05:17:34;25.40;;;3.97;;
52494;SDS011;38405;53.212;5.660;2023-03-25T05:20:00;26.00;;;4.22;;
52494;SDS011;38405;53.212;5.660;2023-03-25T05:22:26;32.80;;;4.22;;
52494;SDS011;38405;53.212;5.660;2023-03-25T05:24:51;32.03;;;5.00;;
52494;SDS011;38405;53.212;5.660;2023-03-25T05:27:18;25.23;;;4.60;;
52494;SDS011;38405;53.212;5.660;2023-03-25T05:29:46;21.35;;;4.80;;
52494;SDS011;38405;53.212;5.660;2023-03-25T05:32:11;32.80;;;5.40;;
52494;SDS011;38405;53.212;5.660;2023-03-25T05:34:42;26.85;;;4.75;;
52494;SDS011;38405;53.212;5.660;2023-03-25T05:37:10;31.42;;;5.53;;
52494;SDS011;38405;53.212;5.660;2023-03-25T05:39:37;28.40;;;4.90;;
52494;SDS011;38405;53.212;5.660;2023-03-25T05:42:03;28.05;;;5.25;;
52494;SDS011;38405;53.212;5.660;2023-03-25T05:44:28;34.08;;;5.00;;
52494;SDS011;38405;53.212;5.660;2023-03-25T05:46:54;25.75;;;4.00;;
52494;SDS011;38405;53.212;5.660;2023-03-25T05:49:20;27.90;;;4.78;;
52494;SDS011;38405;53.212;5.660;2023-03-25T05:51:45;35.70;;;4.85;;
52494;SDS011;38405;53.212;5.660;2023-03-25T05:54:13;33.70;;;4.90;;
52494;SDS011;38405;53.212;5.660;2023-03-25T05:56:39;28.92;;;5.07;;
52494;SDS011;38405;53.212;5.660;2023-03-25T05:59:06;30.55;;;6.05;;
52494;SDS011;38405;53.212;5.660;2023-03-25T06:01:34;27.92;;;4.45;;
52494;SDS011;38405;53.212;5.660;2023-03-25T06:04:01;29.08;;;5.13;;
52494;SDS011;38405;53.212;5.660;2023-03-25T06:06:27;27.15;;;4.95;;
52494;SDS011;38405;53.212;5.660;2023-03-25T06:08:53;26.90;;;4.47;;
52494;SDS011;38405;53.212;5.660;2023-03-25T06:11:19;32.33;;;5.22;;
52494;SDS011;38405;53.212;5.660;2023-03-25T06:13:46;27.02;;;4.47;;
52494;SDS011;38405;53.212;5.660;2023-03-25T06:16:21;35.70;;;4.82;;
52494;SDS011;38405;53.212;5.660;2023-03-25T06:18:51;29.00;;;4.40;;
52494;SDS011;38405;53.212;5.660;2023-03-25T06:21:21;32.03;;;5.40;;
52494;SDS011;38405;53.212;5.660;2023-03-25T06:23:47;30.00;;;4.78;;
52494;SDS011;38405;53.212;5.660;2023-03-25T06:26:14;37.63;;;5.75;;
52494;SDS011;38405;53.212;5.660;2023-03-25T06:28:41;27.83;;;4.18;;
52494;SDS011;38405;53.212;5.660;2023-03-25T06:31:10;25.67;;;3.30;;
52494;SDS011;38405;53.212;5.660;2023-03-25T06:33:37;29.25;;;4.88;;
52494;SDS011;38405;53.212;5.660;2023-03-25T06:36:03;24.35;;;4.15;;
52494;SDS011;38405;53.212;5.660;2023-03-25T06:38:29;26.90;;;4.50;;
52494;SDS011;38405;53.212;5.660;2023-03-25T06:40:58;26.48;;;4.93;;
52494;SDS011;38405;53.212;5.660;2023-03-25T06:43:23;27.75;;;3.97;;
52494;SDS011;38405;53.212;5.660;2023-03-25T06:45:49;19.25;;;3.92;;
52494;SDS011;38405;53.212;5.660;2023-03-25T06:48:15;19.52;;;3.88;;
52494;SDS011;38405;53.212;5.660;2023-03-25T06:50:41;23.33;;;4.20;;
52494;SDS011;38405;53.212;5.660;2023-03-25T06:53:07;23.85;;;4.65;;
52494;SDS011;38405;53.212;5.660;2023-03-25T06:55:35;24.52;;;4.30;;
52494;SDS011;38405;53.212;5.660;2023-03-25T06:58:02;24.83;;;3.88;;
52494;SDS011;38405;53.212;5.660;2023-03-25T07:00:28;28.17;;;4.22;;
52494;SDS011;38405;53.212;5.660;2023-03-25T07:02:54;27.77;;;4.18;;
52494;SDS011;38405;53.212;5.660;2023-03-25T07:05:20;25.35;;;3.63;;
52494;SDS011;38405;53.212;5.660;2023-03-25T07:07:46;28.27;;;4.30;;
52494;SDS011;38405;53.212;5.660;2023-03-25T07:10:12;25.88;;;4.45;;
52494;SDS011;38405;53.212;5.660;2023-03-25T07:12:38;26.20;;;4.05;;
52494;SDS011;38405;53.212;5.660;2023-03-25T07:15:04;27.00;;;4.28;;
52494;SDS011;38405;53.212;5.660;2023-03-25T07:17:31;27.05;;;4.60;;
52494;SDS011;38405;53.212;5.660;2023-03-25T07:19:56;26.17;;;4.50;;
52494;SDS011;38405;53.212;5.660;2023-03-25T07:22:22;29.30;;;4.70;;
52494;SDS011;38405;53.212;5.660;2023-03-25T07:24:47;25.42;;;4.30;;
52494;SDS011;38405;53.212;5.660;2023-03-25T07:27:13;21.67;;;3.88;;
52494;SDS011;38405;53.212;5.660;2023-03-25T07:29:40;27.85;;;4.80;;
52494;SDS011;38405;53.212;5.660;2023-03-25T07:32:06;32.72;;;5.25;;
52494;SDS011;38405;53.212;5.660;2023-03-25T07:34:31;28.45;;;4.00;;
52494;SDS011;38405;53.212;5.660;2023-03-25T07:36:57;20.60;;;3.25;;
52494;SDS011;38405;53.212;5.660;2023-03-25T07:39:23;19.83;;;3.55;;
52494;SDS011;38405;53.212;5.660;2023-03-25T07:41:52;17.13;;;3.22;;
52494;SDS011;38405;53.212;5.660;2023-03-25T07:44:18;30.90;;;3.70;;
52494;SDS011;38405;53.212;5.660;2023-03-25T07:46:45;29.63;;;4.93;;
52494;SDS011;38405;53.212;5.660;2023-03-25T07:49:11;23.10;;;4.22;;
52494;SDS011;38405;53.212;5.660;2023-03-25T07:51:37;20.65;;;3.58;;
52494;SDS011;38405;53.212;5.660;2023-03-25T07:54:03;19.45;;;3.80;;
52494;SDS011;38405;53.212;5.660;2023-03-25T07:56:29;26.67;;;4.10;;
52494;SDS011;38405;53.212;5.660;2023-03-25T07:58:54;25.88;;;5.00;;
52494;SDS011;38405;53.212;5.660;2023-03-25T08:01:20;38.83;;;5.07;;
52494;SDS011;38405;53.212;5.660;2023-03-25T08:03:46;27.38;;;4.63;;
52494;SDS011;38405;53.212;5.660;2023-03-25T08:06:11;29.90;;;4.38;;
52494;SDS011;38405;53.212;5.660;2023-03-25T08:08:37;21.13;;;4.03;;
52494;SDS011;38405;53.212;5.660;2023-03-25T08:11:03;26.17;;;4.25;;
52494;SDS011;38405;53.212;5.660;2023-03-25T08:13:29;24.05;;;4.22;;
52494;SDS011;38405;53.212;5.660;2023-03-25T08:15:55;27.88;;;3.97;;
52494;SDS011;38405;53.212;5.660;2023-03-25T08:18:21;24.13;;;4.45;;
52494;SDS011;38405;53.212;5.660;2023-03-25T08:20:49;29.42;;;4.53;;
52494;SDS011;38405;53.212;5.660;2023-03-25T08:23:15;24.95;;;4.32;;
52494;SDS011;38405;53.212;5.660;2023-03-25T08:25:42;23.48;;;4.25;;
52494;SDS011;38405;53.212;5.660;2023-03-25T08:28:08;22.60;;;4.10;;
52494;SDS011;38405;53.212;5.660;2023-03-25T08:30:35;21.52;;;4.07;;
52494;SDS011;38405;53.212;5.660;2023-03-25T08:33:02;26.00;;;3.90;;
52494;SDS011;38405;53.212;5.660;2023-03-25T08:35:29;27.88;;;4.38;;
52494;SDS011;38405;53.212;5.660;2023-03-25T08:37:54;23.88;;;4.15;;
52494;SDS011;38405;53.212;5.660;2023-03-25T08:40:20;18.88;;;3.75;;
52494;SDS011;38405;53.212;5.660;2023-03-25T08:42:46;24.60;;;4.05;;
52494;SDS011;38405;53.212;5.660;2023-03-25T08:45:12;25.80;;;4.60;;
52494;SDS011;38405;53.212;5.660;2023-03-25T08:47:39;24.67;;;4.47;;
52494;SDS011;38405;53.212;5.660;2023-03-25T08:50:06;27.65;;;4.30;;
52494;SDS011;38405;53.212;5.660;2023-03-25T08:52:32;29.75;;;4.90;;
52494;SDS011;38405;53.212;5.660;2023-03-25T08:54:58;26.73;;;4.00;;
52494;SDS011;38405;53.212;5.660;2023-03-25T08:57:23;29.42;;;4.47;;
52494;SDS011;38405;53.212;5.660;2023-03-25T08:59:50;20.33;;;4.45;;
52494;SDS011;38405;53.212;5.660;2023-03-25T09:02:15;16.52;;;3.85;;
52494;SDS011;38405;53.212;5.660;2023-03-25T09:04:41;26.17;;;4.20;;
52494;SDS011;38405;53.212;5.660;2023-03-25T09:07:07;25.73;;;4.60;;
52494;SDS011;38405;53.212;5.660;2023-03-25T09:09:35;29.65;;;4.70;;
52494;SDS011;38405;53.212;5.660;2023-03-25T09:12:02;23.95;;;4.05;;
52494;SDS011;38405;53.212;5.660;2023-03-25T09:14:29;25.65;;;3.90;;
52494;SDS011;38405;53.212;5.660;2023-03-25T09:16:55;25.92;;;4.38;;
52494;SDS011;38405;53.212;5.660;2023-03-25T09:19:20;22.42;;;4.68;;
52494;SDS011;38405;53.212;5.660;2023-03-25T09:21:46;28.27;;;4.05;;
52494;SDS011;38405;53.212;5.660;2023-03-25T09:24:12;27.58;;;4.43;;
52494;SDS011;38405;53.212;5.660;2023-03-25T09:26:37;24.23;;;4.72;;
52494;SDS011;38405;53.212;5.660;2023-03-25T09:29:03;24.80;;;4.18;;
52494;SDS011;38405;53.212;5.660;2023-03-25T09:31:29;22.77;;;4.00;;
52494;SDS011;38405;53.212;5.660;2023-03-25T09:33:55;27.27;;;4.10;;
52494;SDS011;38405;53.212;5.660;2023-03-25T09:36:21;29.08;;;4.70;;
52494;SDS011;38405;53.212;5.660;2023-03-25T09:38:47;20.67;;;3.75;;
52494;SDS011;38405;53.212;5.660;2023-03-25T09:41:20;26.20;;;4.65;;
52494;SDS011;38405;53.212;5.660;2023-03-25T09:46:50;26.65;;;4.53;;
52494;SDS011;38405;53.212;5.660;2023-03-25T09:49:19;23.17;;;4.18;;
52494;SDS011;38405;53.212;5.660;2023-03-25T09:56:45;28.83;;;5.15;;
52494;SDS011;38405;53.212;5.660;2023-03-25T09:59:13;26.75;;;4.00;;
52494;SDS011;38405;53.212;5.660;2023-03-25T10:12:39;25.92;;;4.70;;
52494;SDS011;38405;53.212;5.660;2023-03-25T10:21:14;32.03;;;4.80;;
52494;SDS011;38405;53.212;5.660;2023-03-25T10:29:17;24.90;;;4.60;;
52494;SDS011;38405;53.212;5.660;2023-03-25T10:31:53;29.83;;;4.32;;
52494;SDS011;38405;53.212;5.660;2023-03-25T10:34:28;29.38;;;5.28;;
52494;SDS011;38405;53.212;5.660;2023-03-25T10:37:01;26.70;;;5.13;;
52494;SDS011;38405;53.212;5.660;2023-03-25T10:39:31;29.42;;;5.20;;
52494;SDS011;38405;53.212;5.660;2023-03-25T10:41:58;23.90;;;4.20;;
52494;SDS011;38405;53.212;5.660;2023-03-25T10:44:34;25.23;;;4.25;;
52494;SDS011;38405;53.212;5.660;2023-03-25T10:47:03;24.15;;;4.25;;
52494;SDS011;38405;53.212;5.660;2023-03-25T10:49:39;27.25;;;4.93;;
52494;SDS011;38405;53.212;5.660;2023-03-25T10:52:06;27.48;;;4.90;;
52494;SDS011;38405;53.212;5.660;2023-03-25T10:54:34;28.05;;;4.95;;
52494;SDS011;38405;53.212;5.660;2023-03-25T10:57:07;21.98;;;4.32;;
52494;SDS011;38405;53.212;5.660;2023-03-25T11:02:18;24.75;;;4.35;;
52494;SDS011;38405;53.212;5.660;2023-03-25T11:04:46;24.88;;;5.25;;
52494;SDS011;38405;53.212;5.660;2023-03-25T11:07:21;24.52;;;4.70;;
52494;SDS011;38405;53.212;5.660;2023-03-25T11:09:50;20.52;;;4.18;;
52494;SDS011;38405;53.212;5.660;2023-03-25T11:12:17;28.05;;;4.47;;
52494;SDS011;38405;53.212;5.660;2023-03-25T11:14:44;25.10;;;4.32;;
52494;SDS011;38405;53.212;5.660;2023-03-25T11:17:18;26.90;;;4.30;;
52494;SDS011;38405;53.212;5.660;2023-03-25T11:19:56;31.30;;;4.68;;
52494;SDS011;38405;53.212;5.660;2023-03-25T11:22:29;25.48;;;4.65;;
52494;SDS011;38405;53.212;5.660;2023-03-25T11:27:30;31.45;;;5.20;;
52494;SDS011;38405;53.212;5.660;2023-03-25T11:30:12;29.23;;;4.60;;
52494;SDS011;38405;53.212;5.660;2023-03-25T11:32:41;26.65;;;4.75;;
52494;SDS011;38405;53.212;5.660;2023-03-25T11:35:15;23.60;;;4.50;;
52494;SDS011;38405;53.212;5.660;2023-03-25T11:37:44;21.55;;;4.72;;
52494;SDS011;38405;53.212;5.660;2023-03-25T11:40:15;30.88;;;5.00;;
52494;SDS011;38405;53.212;5.660;2023-03-25T11:42:45;25.02;;;4.55;;
52494;SDS011;38405;53.212;5.660;2023-03-25T11:45:18;27.83;;;4.88;;
52494;SDS011;38405;53.212;5.660;2023-03-25T11:47:46;23.70;;;4.35;;
52494;SDS011;38405;53.212;5.660;2023-03-25T11:50:18;31.75;;;4.65;;
52494;SDS011;38405;53.212;5.660;2023-03-25T11:52:47;26.02;;;4.70;;
52494;SDS011;38405;53.212;5.660;2023-03-25T11:55:24;20.95;;;4.13;;
52494;SDS011;38405;53.212;5.660;2023-03-25T11:57:54;21.65;;;4.25;;
52494;SDS011;38405;53.212;5.660;2023-03-25T12:00:36;26.25;;;5.15;;
52494;SDS011;38405;53.212;5.660;2023-03-25T12:03:04;27.23;;;4.45;;
52494;SDS011;38405;53.212;5.660;2023-03-25T12:05:36;23.33;;;4.40;;
52494;SDS011;38405;53.212;5.660;2023-03-25T12:08:14;18.08;;;3.60;;
52494;SDS011;38405;53.212;5.660;2023-03-25T12:16:36;22.55;;;5.03;;
52494;SDS011;38405;53.212;5.660;2023-03-25T12:19:13;32.10;;;4.55;;
52494;SDS011;38405;53.212;5.660;2023-03-25T12:28:03;26.42;;;4.90;;
52494;SDS011;38405;53.212;5.660;2023-03-25T12:30:46;34.80;;;4.85;;
52494;SDS011;38405;53.212;5.660;2023-03-25T12:41:27;22.67;;;3.67;;
52494;SDS011;38405;53.212;5.660;2023-03-25T12:44:01;19.50;;;2.60;;
52494;SDS011;38405;53.212;5.660;2023-03-25T12:49:53;24.15;;;4.15;;
52494;SDS011;38405;53.212;5.660;2023-03-25T13:01:28;23.42;;;4.60;;
52494;SDS011;38405;53.212;5.660;2023-03-25T13:06:46;28.05;;;4.97;;
52494;SDS011;38405;53.212;5.660;2023-03-25T13:09:38;27.17;;;4.28;;
52494;SDS011;38405;53.212;5.660;2023-03-25T13:12:37;21.15;;;3.80;;
52494;SDS011;38405;53.212;5.660;2023-03-25T13:15:21;14.05;;;2.95;;
52494;SDS011;38405;53.212;5.660;2023-03-25T13:18:32;12.68;;;2.70;;
52494;SDS011;38405;53.212;5.660;2023-03-25T13:21:00;15.95;;;3.45;;
52494;SDS011;38405;53.212;5.660;2023-03-25T13:23:30;21.55;;;3.53;;
52494;SDS011;38405;53.212;5.660;2023-03-25T13:25:59;26.00;;;3.70;;
52494;SDS011;38405;53.212;5.660;2023-03-25T13:29:06;21.27;;;3.45;;
52494;SDS011;38405;53.212;5.660;2023-03-25T13:31:27;22.95;;;3.78;;
52494;SDS011;38405;53.212;5.660;2023-03-25T13:36:57;15.90;;;2.97;;
52494;SDS011;38405;53.212;5.660;2023-03-25T13:39:45;23.50;;;3.22;;
52494;SDS011;38405;53.212;5.660;2023-03-25T13:42:26;25.40;;;3.72;;
52494;SDS011;38405;53.212;5.660;2023-03-25T13:45:03;24.55;;;3.58;;
52494;SDS011;38405;53.212;5.660;2023-03-25T13:47:32;21.15;;;4.47;;
52494;SDS011;38405;53.212;5.660;2023-03-25T13:50:04;24.02;;;3.63;;
52494;SDS011;38405;53.212;5.660;2023-03-25T13:55:56;22.33;;;4.10;;
52494;SDS011;38405;53.212;5.660;2023-03-25T14:13:06;20.20;;;3.15;;
52494;SDS011;38405;53.212;5.660;2023-03-25T14:15:40;15.88;;;2.88;;
52494;SDS011;38405;53.212;5.660;2023-03-25T14:18:16;18.15;;;3.78;;
52494;SDS011;38405;53.212;5.660;2023-03-25T14:20:44;13.18;;;2.75;;
52494;SDS011;38405;53.212;5.660;2023-03-25T14:23:12;11.73;;;3.03;;
52494;SDS011;38405;53.212;5.660;2023-03-25T14:25:45;20.02;;;3.35;;
52494;SDS011;38405;53.212;5.660;2023-03-25T14:28:46;23.20;;;3.80;;
52494;SDS011;38405;53.212;5.660;2023-03-25T14:36:30;12.25;;;2.38;;
52494;SDS011;38405;53.212;5.660;2023-03-25T14:39:02;14.48;;;2.78;;
52494;SDS011;38405;53.212;5.660;2023-03-25T14:44:20;13.52;;;2.40;;
52494;SDS011;38405;53.212;5.660;2023-03-25T14:46:46;20.98;;;3.78;;
52494;SDS011;38405;53.212;5.660;2023-03-25T14:49:21;22.55;;;3.58;;
52494;SDS011;38405;53.212;5.660;2023-03-25T14:51:50;15.73;;;2.78;;
52494;SDS011;38405;53.212;5.660;2023-03-25T14:54:28;14.82;;;3.15;;
52494;SDS011;38405;53.212;5.660;2023-03-25T14:57:04;12.23;;;2.33;;
52494;SDS011;38405;53.212;5.660;2023-03-25T14:59:49;21.77;;;3.05;;
52494;SDS011;38405;53.212;5.660;2023-03-25T15:02:23;20.70;;;3.00;;
52494;SDS011;38405;53.212;5.660;2023-03-25T15:04:52;23.42;;;3.80;;
52494;SDS011;38405;53.212;5.660;2023-03-25T15:07:37;10.63;;;2.60;;
52494;SDS011;38405;53.212;5.660;2023-03-25T15:13:05;14.88;;;2.75;;
52494;SDS011;38405;53.212;5.660;2023-03-25T15:18:56;16.23;;;2.92;;
52494;SDS011;38405;53.212;5.660;2023-03-25T15:21:02;14.82;;;2.55;;
52494;SDS011;38405;53.212;5.660;2023-03-25T15:25:58;11.52;;;2.05;;
52494;SDS011;38405;53.212;5.660;2023-03-25T15:36:36;25.33;;;2.92;;
52494;SDS011;38405;53.212;5.660;2023-03-25T15:39:13;21.20;;;3.00;;
52494;SDS011;38405;53.212;5.660;2023-03-25T15:50:20;14.65;;;3.28;;
52494;SDS011;38405;53.212;5.660;2023-03-25T15:55:34;14.20;;;2.28;;
52494;SDS011;38405;53.212;5.660;2023-03-25T15:58:05;15.05;;;2.45;;
52494;SDS011;38405;53.212;5.660;2023-03-25T16:03:18;14.68;;;2.50;;
52494;SDS011;38405;53.212;5.660;2023-03-25T16:05:51;19.88;;;2.92;;
52494;SDS011;38405;53.212;5.660;2023-03-25T16:08:21;14.23;;;3.05;;
52494;SDS011;38405;53.212;5.660;2023-03-25T16:11:03;18.58;;;2.85;;
52494;SDS011;38405;53.212;5.660;2023-03-25T16:13:43;18.95;;;3.05;;
52494;SDS011;38405;53.212;5.660;2023-03-25T16:16:09;13.02;;;2.50;;
52494;SDS011;38405;53.212;5.660;2023-03-25T16:18:38;9.07;;;2.20;;
52494;SDS011;38405;53.212;5.660;2023-03-25T16:21:06;14.95;;;2.85;;
52494;SDS011;38405;53.212;5.660;2023-03-25T16:23:32;15.50;;;3.13;;
52494;SDS011;38405;53.212;5.660;2023-03-25T16:26:00;23.40;;;3.28;;
52494;SDS011;38405;53.212;5.660;2023-03-25T16:28:31;15.77;;;2.92;;
52494;SDS011;38405;53.212;5.660;2023-03-25T16:30:58;14.18;;;3.13;;
52494;SDS011;38405;53.212;5.660;2023-03-25T16:33:27;12.15;;;2.60;;
52494;SDS011;38405;53.212;5.660;2023-03-25T16:36:06;16.95;;;2.97;;
52494;SDS011;38405;53.212;5.660;2023-03-25T16:38:38;14.52;;;3.10;;
52494;SDS011;38405;53.212;5.660;2023-03-25T16:41:09;12.25;;;2.65;;
52494;SDS011;38405;53.212;5.660;2023-03-25T16:43:36;18.90;;;3.40;;
52494;SDS011;38405;53.212;5.660;2023-03-25T16:46:02;15.60;;;2.80;;
52494;SDS011;38405;53.212;5.660;2023-03-25T16:51:13;20.90;;;3.50;;
52494;SDS011;38405;53.212;5.660;2023-03-25T16:53:41;19.10;;;3.33;;
52494;SDS011;38405;53.212;5.660;2023-03-25T16:58:34;15.77;;;3.10;;
52494;SDS011;38405;53.212;5.660;2023-03-25T17:01:06;15.80;;;3.13;;
52494;SDS011;38405;53.212;5.660;2023-03-25T17:03:41;13.02;;;3.30;;
52494;SDS011;38405;53.212;5.660;2023-03-25T17:08:54;17.73;;;3.03;;
52494;SDS011;38405;53.212;5.660;2023-03-25T17:11:23;16.60;;;2.92;;
52494;SDS011;38405;53.212;5.660;2023-03-25T17:13:53;16.58;;;3.38;;
52494;SDS011;38405;53.212;5.660;2023-03-25T17:16:28;22.40;;;4.07;;
52494;SDS011;38405;53.212;5.660;2023-03-25T17:18:56;19.33;;;3.53;;
52494;SDS011;38405;53.212;5.660;2023-03-25T17:21:25;24.55;;;3.97;;
52494;SDS011;38405;53.212;5.660;2023-03-25T17:23:54;17.05;;;4.10;;
52494;SDS011;38405;53.212;5.660;2023-03-25T17:26:23;14.35;;;3.10;;
52494;SDS011;38405;53.212;5.660;2023-03-25T17:33:57;19.60;;;3.35;;
52494;SDS011;38405;53.212;5.660;2023-03-25T17:36:42;12.60;;;3.13;;
52494;SDS011;38405;53.212;5.660;2023-03-25T17:39:18;18.98;;;3.20;;
52494;SDS011;38405;53.212;5.660;2023-03-25T17:41:53;12.18;;;2.60;;
52494;SDS011;38405;53.212;5.660;2023-03-25T17:44:30;11.77;;;3.17;;
52494;SDS011;38405;53.212;5.660;2023-03-25T17:47:02;12.75;;;2.97;;
52494;SDS011;38405;53.212;5.660;2023-03-25T17:49:29;17.50;;;3.35;;
52494;SDS011;38405;53.212;5.660;2023-03-25T17:51:55;18.95;;;4.15;;
52494;SDS011;38405;53.212;5.660;2023-03-25T17:54:22;16.15;;;2.83;;